createdAt,value
2017-08-23T00:01:09.856Z,13.20
2017-08-23T00:03:36.204Z,13.07
2017-08-23T00:06:02.558Z,13.53
2017-08-23T00:08:28.892Z,13.30
2017-08-23T00:10:55.391Z,14.37
2017-08-23T00:13:22.084Z,13.50
2017-08-23T00:15:48.945Z,12.80
2017-08-23T00:18:15.501Z,13.20
2017-08-23T00:20:42.033Z,12.90
2017-08-23T00:23:08.615Z,13.60
2017-08-23T00:25:35.151Z,13.20
2017-08-23T00:28:01.680Z,12.63
2017-08-23T00:30:28.253Z,12.20
2017-08-23T00:32:54.808Z,12.47
2017-08-23T00:35:21.357Z,13.77
2017-08-23T00:37:47.915Z,13.07
2017-08-23T00:40:14.446Z,12.67
2017-08-23T00:42:41.049Z,12.93
2017-08-23T00:45:07.585Z,12.50
2017-08-23T00:47:35.228Z,14.10
2017-08-23T00:50:02.861Z,12.50
2017-08-23T00:52:30.798Z,12.50
2017-08-23T00:54:59.437Z,14.13
2017-08-23T00:57:26.377Z,13.37
2017-08-23T00:59:53.049Z,14.00
2017-08-23T01:02:19.975Z,14.17
2017-08-23T01:07:50.986Z,14.63
2017-08-23T01:10:17.639Z,14.73
2017-08-23T01:12:44.385Z,14.43
2017-08-23T01:15:11.172Z,13.90
2017-08-23T01:17:37.889Z,15.20
2017-08-23T01:20:04.416Z,15.20
2017-08-23T01:22:30.981Z,15.27
2017-08-23T01:24:57.451Z,14.03
2017-08-23T01:27:23.984Z,15.33
2017-08-23T01:29:50.624Z,15.70
2017-08-23T01:32:17.293Z,16.70
2017-08-23T01:37:15.578Z,14.80
2017-08-23T01:39:42.176Z,18.67
2017-08-23T01:42:08.769Z,17.67
2017-08-23T01:44:35.387Z,15.97
2017-08-23T01:47:01.972Z,16.73
2017-08-23T01:49:28.545Z,15.90
2017-08-23T01:51:54.874Z,15.77
2017-08-23T01:54:21.181Z,16.37
2017-08-23T01:56:47.504Z,16.60
2017-08-23T01:59:13.813Z,17.10
2017-08-23T02:01:40.134Z,15.67
2017-08-23T02:04:06.966Z,16.40
2017-08-23T02:06:33.290Z,16.13
2017-08-23T02:08:59.608Z,16.87
2017-08-23T02:11:25.959Z,18.17
2017-08-23T02:13:52.275Z,16.10
2017-08-23T02:16:18.636Z,15.40
2017-08-23T02:18:44.980Z,15.80
2017-08-23T02:21:11.302Z,16.50
2017-08-23T02:23:37.605Z,16.00
2017-08-23T02:26:03.965Z,17.03
2017-08-23T02:28:30.281Z,16.83
2017-08-23T02:30:59.656Z,15.30
2017-08-23T02:33:26.282Z,16.03
2017-08-23T02:35:52.819Z,14.90
2017-08-23T02:38:19.362Z,15.83
2017-08-23T02:40:45.902Z,15.20
2017-08-23T02:43:12.445Z,14.90
2017-08-23T02:45:39.002Z,14.87
2017-08-23T02:48:08.809Z,16.10
2017-08-23T02:50:35.340Z,16.47
2017-08-23T02:53:01.852Z,15.10
2017-08-23T02:55:28.415Z,14.80
2017-08-23T02:57:54.928Z,13.97
2017-08-23T03:00:21.473Z,15.03
2017-08-23T03:02:47.977Z,14.10
2017-08-23T03:05:14.520Z,15.13
2017-08-23T03:07:41.068Z,13.90
2017-08-23T03:10:07.892Z,14.00
2017-08-23T03:12:34.446Z,13.83
2017-08-23T03:15:01.008Z,13.63
2017-08-23T03:17:27.524Z,14.37
2017-08-23T03:19:54.054Z,14.00
2017-08-23T03:22:20.633Z,14.30
2017-08-23T03:24:47.150Z,13.50
2017-08-23T03:27:13.691Z,15.10
2017-08-23T03:29:40.225Z,14.50
2017-08-23T03:32:08.712Z,13.37
2017-08-23T03:34:35.228Z,14.73
2017-08-23T03:37:01.777Z,14.03
2017-08-23T03:39:28.303Z,14.70
2017-08-23T03:41:54.892Z,14.30
2017-08-23T03:44:21.198Z,15.17
2017-08-23T03:46:47.936Z,13.30
2017-08-23T03:49:14.260Z,14.93
2017-08-23T03:51:40.590Z,13.87
2017-08-23T03:54:06.923Z,13.52
2017-08-23T03:56:33.285Z,14.13
2017-08-23T03:58:59.604Z,13.77
2017-08-23T04:01:25.939Z,15.00
2017-08-23T04:03:52.260Z,13.90
2017-08-23T04:06:18.568Z,13.80
2017-08-23T04:08:44.885Z,12.57
2017-08-23T04:11:11.192Z,12.57
2017-08-23T04:13:37.497Z,13.23
2017-08-23T04:16:03.811Z,14.63
2017-08-23T04:18:30.144Z,13.47
2017-08-23T04:20:56.453Z,14.20
2017-08-23T04:23:23.046Z,13.27
2017-08-23T04:25:49.576Z,14.60
2017-08-23T04:28:16.122Z,12.15
2017-08-23T04:30:42.660Z,13.00
2017-08-23T04:33:09.972Z,13.70
2017-08-23T04:35:36.591Z,13.30
2017-08-23T04:38:04.061Z,13.77
2017-08-23T04:40:30.599Z,12.60
2017-08-23T04:42:57.148Z,14.20
2017-08-23T04:45:23.712Z,13.90
2017-08-23T04:47:50.227Z,13.82
2017-08-23T04:50:17.482Z,13.70
2017-08-23T04:52:44.424Z,14.00
2017-08-23T04:55:11.044Z,14.27
2017-08-23T04:57:37.775Z,14.50
2017-08-23T05:00:04.306Z,13.43
2017-08-23T05:02:30.836Z,12.77
2017-08-23T05:04:57.393Z,15.90
2017-08-23T05:07:23.932Z,15.03
2017-08-23T05:09:50.464Z,14.52
2017-08-23T05:12:16.954Z,14.10
2017-08-23T05:14:43.488Z,14.10
2017-08-23T05:17:10.013Z,13.60
2017-08-23T05:19:36.559Z,13.00
2017-08-23T05:22:03.073Z,13.00
2017-08-23T05:24:29.607Z,13.57
2017-08-23T05:26:56.144Z,12.10
2017-08-23T05:29:22.441Z,13.77
2017-08-23T05:31:48.759Z,11.43
2017-08-23T05:34:15.089Z,13.20
2017-08-23T05:36:41.396Z,12.70
2017-08-23T05:39:07.718Z,12.33
2017-08-23T05:41:35.301Z,12.77
2017-08-23T05:44:01.785Z,12.50
2017-08-23T05:46:28.095Z,12.77
2017-08-23T05:48:54.408Z,11.80
2017-08-23T05:51:20.753Z,13.13
2017-08-23T05:53:47.048Z,12.47
2017-08-23T05:56:13.354Z,11.93
2017-08-23T05:58:39.764Z,12.27
2017-08-23T06:01:06.094Z,13.10
2017-08-23T06:03:32.637Z,11.80
2017-08-23T06:05:59.152Z,11.73
2017-08-23T06:08:25.697Z,11.80
2017-08-23T06:10:52.204Z,12.07
2017-08-23T06:13:18.866Z,10.47
2017-08-23T06:15:45.403Z,10.87
2017-08-23T06:18:11.965Z,11.27
2017-08-23T06:20:38.561Z,11.83
2017-08-23T06:23:05.009Z,11.37
2017-08-23T06:25:31.527Z,11.03
2017-08-23T06:27:58.120Z,11.20
2017-08-23T06:30:24.656Z,11.80
2017-08-23T06:32:51.244Z,12.67
2017-08-23T06:35:17.630Z,12.33
2017-08-23T06:37:43.945Z,10.97
2017-08-23T06:40:10.277Z,11.53
2017-08-23T06:42:36.603Z,11.87
2017-08-23T06:45:02.926Z,11.50
2017-08-23T06:47:29.230Z,11.40
2017-08-23T06:49:55.533Z,10.30
2017-08-23T06:52:22.426Z,11.27
2017-08-23T06:54:48.752Z,11.43
2017-08-23T06:57:15.385Z,11.70
2017-08-23T06:59:41.987Z,10.67
2017-08-23T07:02:08.331Z,11.30
2017-08-23T07:04:35.394Z,11.30
2017-08-23T07:07:01.702Z,10.77
2017-08-23T07:09:28.070Z,10.20
2017-08-23T07:11:54.364Z,10.47
2017-08-23T07:14:21.332Z,10.77
2017-08-23T07:16:48.018Z,10.53
2017-08-23T07:19:14.585Z,10.30
2017-08-23T07:21:41.137Z,9.87
2017-08-23T07:24:07.676Z,10.47
2017-08-23T07:26:34.196Z,10.33
2017-08-23T07:29:00.717Z,10.50
2017-08-23T07:31:27.457Z,10.00
2017-08-23T07:33:54.014Z,10.40
2017-08-23T07:36:20.565Z,8.90
2017-08-23T07:38:47.314Z,9.13
2017-08-23T07:41:13.835Z,9.57
2017-08-23T07:43:40.416Z,8.20
2017-08-23T07:46:06.945Z,9.47
2017-08-23T07:48:33.488Z,9.00
2017-08-23T07:51:00.012Z,7.30
2017-08-23T07:53:28.032Z,8.37
2017-08-23T07:55:54.567Z,6.60
2017-08-23T07:58:21.140Z,7.33
2017-08-23T08:00:47.809Z,6.77
2017-08-23T08:03:14.506Z,6.20
2017-08-23T08:05:41.068Z,6.47
2017-08-23T08:08:07.665Z,5.70
2017-08-23T08:10:37.311Z,6.47
2017-08-23T08:13:04.919Z,5.57
2017-08-23T08:15:31.432Z,5.10
2017-08-23T08:17:57.965Z,5.43
2017-08-23T08:20:24.297Z,4.47
2017-08-23T08:22:50.620Z,4.37
2017-08-23T08:25:16.958Z,4.37
2017-08-23T08:27:45.305Z,3.90
2017-08-23T08:30:11.698Z,4.20
2017-08-23T08:32:38.007Z,4.07
2017-08-23T08:35:04.315Z,3.40
2017-08-23T08:37:30.620Z,3.53
2017-08-23T08:39:56.939Z,3.97
2017-08-23T08:42:23.378Z,3.50
2017-08-23T08:44:49.717Z,3.50
2017-08-23T08:47:21.554Z,3.60
2017-08-23T08:49:47.897Z,4.60
2017-08-23T08:52:14.208Z,3.80
2017-08-23T08:54:40.544Z,3.70
2017-08-23T08:57:06.870Z,3.57
2017-08-23T08:59:33.183Z,3.80
2017-08-23T09:04:30.700Z,4.13
2017-08-23T09:06:57.005Z,3.63
2017-08-23T09:09:23.399Z,4.43
2017-08-23T09:11:49.704Z,3.50
2017-08-23T09:14:16.022Z,4.10
2017-08-23T09:16:42.610Z,4.10
2017-08-23T09:21:42.389Z,3.60
2017-08-23T09:24:08.953Z,3.57
2017-08-23T09:26:35.468Z,3.50
2017-08-23T09:29:02.010Z,3.87
2017-08-23T09:31:28.585Z,3.77
2017-08-23T09:33:55.125Z,4.17
2017-08-23T09:36:21.682Z,3.90
2017-08-23T09:38:49.681Z,4.07
2017-08-23T09:41:16.250Z,3.20
2017-08-23T09:43:42.777Z,4.10
2017-08-23T09:46:09.288Z,3.97
2017-08-23T09:48:35.817Z,3.50
2017-08-23T09:51:02.383Z,3.43
2017-08-23T09:53:28.927Z,3.00
2017-08-23T09:55:55.457Z,3.70
2017-08-23T09:58:23.880Z,3.10
2017-08-23T10:00:50.417Z,3.40
2017-08-23T10:03:17.027Z,3.50
2017-08-23T10:05:44.404Z,3.23
2017-08-23T10:08:10.882Z,3.03
2017-08-23T10:10:37.480Z,3.70
2017-08-23T10:13:03.985Z,2.90
2017-08-23T10:15:30.492Z,3.03
2017-08-23T10:18:00.048Z,3.33
2017-08-23T10:20:26.659Z,3.10
2017-08-23T10:22:52.986Z,2.90
2017-08-23T10:25:19.290Z,3.30
2017-08-23T10:27:45.609Z,3.67
2017-08-23T10:30:11.916Z,3.00
2017-08-23T10:32:38.207Z,3.27
2017-08-23T10:35:09.157Z,3.97
2017-08-23T10:37:35.478Z,2.93
2017-08-23T10:40:01.805Z,3.77
2017-08-23T10:42:28.111Z,3.17
2017-08-23T10:44:54.444Z,3.57
2017-08-23T10:47:20.791Z,3.50
2017-08-23T10:49:47.096Z,3.20
2017-08-23T10:52:13.433Z,3.30
2017-08-23T10:57:13.013Z,3.33
2017-08-23T10:59:39.454Z,3.30
2017-08-23T11:02:06.339Z,3.10
2017-08-23T11:04:32.672Z,3.10
2017-08-23T11:06:58.979Z,3.60
2017-08-23T11:09:29.773Z,3.33
2017-08-23T11:11:56.284Z,3.23
2017-08-23T11:14:22.844Z,3.50
2017-08-23T11:16:49.437Z,2.90
2017-08-23T11:19:16.004Z,3.40
2017-08-23T11:21:42.814Z,3.37
2017-08-23T11:24:09.361Z,3.57
2017-08-23T11:26:35.901Z,3.40
2017-08-23T11:29:05.148Z,3.60
2017-08-23T11:31:33.995Z,3.37
2017-08-23T11:34:00.589Z,3.10
2017-08-23T11:36:27.208Z,3.47
2017-08-23T11:38:53.748Z,3.17
2017-08-23T11:41:20.293Z,3.30
2017-08-23T11:46:17.830Z,3.50
2017-08-23T11:48:44.262Z,3.87
2017-08-23T11:51:10.665Z,3.73
2017-08-23T11:53:36.989Z,3.60
2017-08-23T11:56:03.314Z,3.50
2017-08-23T11:58:29.629Z,3.70
2017-08-23T12:00:58.592Z,3.23
2017-08-23T12:03:25.158Z,3.90
2017-08-23T12:05:51.764Z,3.60
2017-08-23T12:08:18.370Z,3.50
2017-08-23T12:10:44.928Z,3.70
2017-08-23T12:13:11.526Z,3.20
2017-08-23T12:15:43.355Z,3.13
2017-08-23T12:18:10.060Z,3.77
2017-08-23T12:20:36.590Z,3.20
2017-08-23T12:23:03.122Z,3.40
2017-08-23T12:25:29.621Z,3.33
2017-08-23T12:27:56.233Z,3.20
2017-08-23T12:30:27.488Z,3.50
2017-08-23T12:32:54.045Z,3.37
2017-08-23T12:35:20.620Z,3.83
2017-08-23T12:37:47.164Z,3.43
2017-08-23T12:40:13.469Z,3.17
2017-08-23T12:42:39.795Z,2.87
2017-08-23T12:45:06.091Z,3.13
2017-08-23T12:47:32.387Z,3.07
2017-08-23T12:50:02.219Z,3.23
2017-08-23T12:52:28.548Z,3.03
2017-08-23T12:54:55.057Z,2.70
2017-08-23T12:57:21.588Z,3.40
2017-08-23T12:59:48.100Z,2.90
2017-08-23T13:02:14.669Z,3.30
2017-08-23T13:04:41.211Z,3.30
2017-08-23T13:07:09.709Z,3.10
2017-08-23T13:09:36.225Z,2.67
2017-08-23T13:12:02.764Z,2.47
2017-08-23T13:14:29.189Z,2.60
2017-08-23T13:16:55.706Z,3.30
2017-08-23T13:19:22.217Z,3.53
2017-08-23T13:21:48.512Z,3.50
2017-08-23T13:24:19.376Z,3.70
2017-08-23T13:26:45.672Z,3.10
2017-08-23T13:29:12.079Z,4.37
2017-08-23T13:31:38.380Z,2.70
2017-08-23T13:34:04.697Z,2.90
2017-08-23T13:36:31.032Z,2.63
2017-08-23T13:38:57.346Z,2.63
2017-08-23T13:41:25.439Z,2.97
2017-08-23T13:43:52.607Z,2.80
2017-08-23T13:46:18.945Z,2.57
2017-08-23T13:48:45.264Z,2.70
2017-08-23T13:51:11.584Z,2.87
2017-08-23T13:53:38.394Z,2.67
2017-08-23T13:56:04.933Z,3.07
2017-08-23T13:58:31.458Z,3.20
2017-08-23T14:00:58.015Z,3.00
2017-08-23T14:03:24.617Z,2.67
2017-08-23T14:05:51.159Z,2.53
2017-08-23T14:08:17.714Z,2.73
2017-08-23T14:10:44.256Z,2.90
2017-08-23T14:13:10.793Z,3.10
2017-08-23T14:15:37.362Z,3.20
2017-08-23T14:18:03.958Z,3.10
2017-08-23T14:20:35.688Z,2.80
2017-08-23T14:23:02.282Z,2.83
2017-08-23T14:25:28.796Z,2.90
2017-08-23T14:27:55.378Z,2.90
2017-08-23T14:30:21.869Z,2.90
2017-08-23T14:32:48.437Z,2.87
2017-08-23T14:35:14.745Z,3.00
2017-08-23T14:37:41.081Z,2.90
2017-08-23T14:40:07.833Z,2.90
2017-08-23T14:42:34.123Z,3.30
2017-08-23T14:45:00.450Z,3.00
2017-08-23T14:47:26.772Z,3.13
2017-08-23T14:49:53.078Z,2.90
2017-08-23T14:52:19.412Z,3.23
2017-08-23T14:54:45.743Z,2.57
2017-08-23T14:57:12.233Z,2.83
2017-08-23T14:59:38.591Z,2.80
2017-08-23T15:02:04.939Z,3.03
2017-08-23T15:04:31.270Z,3.23
2017-08-23T15:06:57.593Z,3.20
2017-08-23T15:09:24.205Z,3.63
2017-08-23T15:11:50.762Z,3.07
2017-08-23T15:14:17.317Z,3.33
2017-08-23T15:16:43.842Z,3.23
2017-08-23T15:19:10.480Z,3.10
2017-08-23T15:21:37.004Z,2.90
2017-08-23T15:24:03.564Z,3.10
2017-08-23T15:26:30.587Z,2.87
2017-08-23T15:28:57.148Z,2.80
2017-08-23T15:31:23.700Z,3.20
2017-08-23T15:33:50.253Z,2.80
2017-08-23T15:36:17.976Z,3.20
2017-08-23T15:38:44.421Z,2.83
2017-08-23T15:41:10.980Z,2.63
2017-08-23T15:43:40.182Z,2.67
2017-08-23T15:46:06.765Z,2.30
2017-08-23T15:48:33.313Z,2.50
2017-08-23T15:50:59.887Z,2.50
2017-08-23T15:53:31.365Z,2.93
2017-08-23T15:55:58.118Z,2.30
2017-08-23T15:58:24.501Z,2.57
2017-08-23T16:00:50.859Z,2.90
2017-08-23T16:03:17.206Z,2.60
2017-08-23T16:05:43.591Z,2.93
2017-08-23T16:08:10.138Z,2.80
2017-08-23T16:10:40.419Z,2.47
2017-08-23T16:13:06.804Z,2.90
2017-08-23T16:15:33.356Z,2.97
2017-08-23T16:17:59.905Z,3.13
2017-08-23T16:20:27.269Z,2.77
2017-08-23T16:22:54.540Z,2.80
2017-08-23T16:25:21.576Z,2.87
2017-08-23T16:27:49.119Z,2.77
2017-08-23T16:30:15.673Z,3.27
2017-08-23T16:32:43.150Z,2.97
2017-08-23T16:35:09.768Z,2.90
2017-08-23T16:37:36.272Z,2.67
2017-08-23T16:40:06.325Z,2.67
2017-08-23T16:42:33.074Z,2.90
2017-08-23T16:44:59.398Z,3.60
2017-08-23T16:47:25.712Z,3.23
2017-08-23T16:49:52.036Z,3.03
2017-08-23T16:52:18.344Z,2.97
2017-08-23T16:54:46.316Z,2.90
2017-08-23T16:57:12.757Z,2.80
2017-08-23T16:59:39.299Z,2.67
2017-08-23T17:02:05.809Z,3.60
2017-08-23T17:04:32.324Z,3.27
2017-08-23T17:07:01.995Z,3.20
2017-08-23T17:09:28.444Z,3.13
2017-08-23T17:12:03.008Z,3.70
2017-08-23T17:14:38.099Z,3.67
2017-08-23T17:17:04.693Z,3.30
2017-08-23T17:19:31.214Z,3.30
2017-08-23T17:21:57.593Z,3.10
2017-08-23T17:24:23.990Z,3.30
2017-08-23T17:26:50.425Z,3.03
2017-08-23T17:29:16.812Z,3.53
2017-08-23T17:31:43.204Z,2.80
2017-08-23T17:34:09.577Z,3.20
2017-08-23T17:36:35.910Z,3.13
2017-08-23T17:39:02.310Z,3.03
2017-08-23T17:41:28.638Z,2.83
2017-08-23T17:43:55.225Z,3.33
2017-08-23T17:46:22.318Z,3.70
2017-08-23T17:48:48.864Z,3.30
2017-08-23T17:51:15.390Z,3.77
2017-08-23T17:53:41.933Z,3.60
2017-08-23T17:56:08.509Z,4.03
2017-08-23T17:58:35.109Z,4.40
2017-08-23T18:01:01.661Z,3.80
2017-08-23T18:03:28.229Z,3.80
2017-08-23T18:05:54.827Z,3.73
2017-08-23T18:08:21.333Z,4.00
2017-08-23T18:10:47.953Z,4.30
2017-08-23T18:13:14.486Z,4.40
2017-08-23T18:15:41.065Z,4.40
2017-08-23T18:18:07.621Z,4.13
2017-08-23T18:20:34.202Z,4.00
2017-08-23T18:23:00.823Z,4.17
2017-08-23T18:25:27.378Z,4.40
2017-08-23T18:27:53.892Z,3.90
2017-08-23T18:30:20.456Z,5.10
2017-08-23T18:32:46.944Z,5.00
2017-08-23T18:35:13.490Z,5.10
2017-08-23T18:37:40.122Z,5.40
2017-08-23T18:40:06.645Z,5.77
2017-08-23T18:42:33.152Z,5.73
2017-08-23T18:44:59.676Z,5.73
2017-08-23T18:47:26.180Z,5.67
2017-08-23T18:49:52.504Z,6.00
2017-08-23T18:52:18.831Z,5.50
2017-08-23T18:54:45.141Z,6.17
2017-08-23T18:57:11.468Z,5.93
2017-08-23T18:59:38.281Z,6.53
2017-08-23T19:02:04.629Z,7.57
2017-08-23T19:04:30.924Z,7.23
2017-08-23T19:06:57.344Z,7.30
2017-08-23T19:09:24.078Z,7.37
2017-08-23T19:11:50.406Z,6.63
2017-08-23T19:14:16.760Z,7.37
2017-08-23T19:16:43.096Z,6.40
2017-08-23T19:19:09.825Z,7.10
2017-08-23T19:21:36.244Z,7.77
2017-08-23T19:24:02.590Z,6.40
2017-08-23T19:26:29.020Z,5.90
2017-08-23T19:28:55.473Z,6.13
2017-08-23T19:31:22.385Z,6.50
2017-08-23T19:33:48.926Z,6.17
2017-08-23T19:36:15.502Z,6.80
2017-08-23T19:38:42.113Z,6.10
2017-08-23T19:41:08.711Z,7.23
2017-08-23T19:43:35.384Z,6.90
2017-08-23T19:46:01.900Z,7.20
2017-08-23T19:48:28.459Z,7.73
2017-08-23T19:50:55.072Z,7.60
2017-08-23T19:53:22.001Z,6.30
2017-08-23T19:55:49.516Z,6.50
2017-08-23T19:58:16.614Z,6.70
2017-08-23T20:00:44.184Z,6.90
2017-08-23T20:03:11.340Z,6.40
2017-08-23T20:05:38.936Z,6.53
2017-08-23T20:08:05.858Z,6.47
2017-08-23T20:10:33.419Z,6.70
2017-08-23T20:13:00.297Z,6.93
2017-08-23T20:15:27.784Z,6.57
2017-08-23T20:17:55.200Z,6.50
2017-08-23T20:20:22.893Z,7.50
2017-08-23T20:22:49.721Z,6.40
2017-08-23T20:25:16.261Z,7.10
2017-08-23T20:27:43.007Z,6.40
2017-08-23T20:30:09.613Z,6.67
2017-08-23T20:32:36.291Z,6.40
2017-08-23T20:35:03.680Z,6.37
2017-08-23T20:37:30.288Z,5.50
2017-08-23T20:39:57.279Z,5.97
2017-08-23T20:42:23.840Z,6.40
2017-08-23T20:44:50.169Z,6.50
2017-08-23T20:47:16.660Z,5.90
2017-08-23T20:49:42.944Z,6.17
2017-08-23T20:52:09.805Z,5.50
2017-08-23T20:54:36.105Z,6.00
2017-08-23T20:57:02.545Z,5.90
2017-08-23T20:59:28.836Z,5.37
2017-08-23T21:01:55.135Z,4.67
2017-08-23T21:04:21.424Z,5.03
2017-08-23T21:06:47.724Z,5.63
2017-08-23T21:09:14.097Z,5.17
2017-08-23T21:11:40.533Z,4.47
2017-08-23T21:14:07.069Z,5.43
2017-08-23T21:16:33.525Z,5.63
2017-08-23T21:18:59.864Z,4.80
2017-08-23T21:21:26.207Z,4.50
2017-08-23T21:23:52.865Z,4.90
2017-08-23T21:26:19.479Z,4.50
2017-08-23T21:28:45.985Z,4.33
2017-08-23T21:31:12.664Z,5.40
2017-08-23T21:33:39.257Z,4.80
2017-08-23T21:36:05.958Z,4.50
2017-08-23T21:38:32.580Z,4.50
2017-08-23T21:40:59.093Z,3.90
2017-08-23T21:43:25.732Z,4.03
2017-08-23T21:45:52.272Z,4.30
2017-08-23T21:48:18.803Z,4.17
2017-08-23T21:50:46.744Z,4.70
2017-08-23T21:53:13.370Z,4.00
2017-08-23T21:55:39.976Z,4.33
2017-08-23T21:58:06.536Z,4.40
2017-08-23T22:00:33.088Z,4.23
2017-08-23T22:02:59.602Z,4.20
2017-08-23T22:05:26.239Z,4.33
2017-08-23T22:07:52.907Z,4.40
2017-08-23T22:10:19.516Z,4.67
2017-08-23T22:12:46.025Z,4.60
2017-08-23T22:15:12.604Z,4.00
2017-08-23T22:17:39.862Z,4.27
2017-08-23T22:20:06.404Z,4.70
2017-08-23T22:22:32.908Z,3.80
2017-08-23T22:24:59.433Z,4.20
2017-08-23T22:27:25.933Z,4.10
2017-08-23T22:29:52.253Z,4.33
2017-08-23T22:32:18.657Z,4.40
2017-08-23T22:34:45.023Z,4.60
2017-08-23T22:37:11.372Z,4.10
2017-08-23T22:39:37.676Z,4.67
2017-08-23T22:42:04.037Z,4.77
2017-08-23T22:44:30.357Z,4.30
2017-08-23T22:46:56.691Z,4.37
2017-08-23T22:49:23.006Z,4.60
2017-08-23T22:51:49.353Z,4.33
2017-08-23T22:54:15.809Z,4.40
2017-08-23T22:56:42.121Z,4.33
2017-08-23T22:59:08.436Z,4.60
2017-08-23T23:01:34.991Z,5.10
2017-08-23T23:04:01.536Z,4.90
2017-08-23T23:06:28.067Z,4.30
2017-08-23T23:08:54.615Z,4.40
2017-08-23T23:11:21.267Z,4.43
2017-08-23T23:13:47.789Z,4.50
2017-08-23T23:16:14.319Z,4.80
2017-08-23T23:18:40.939Z,4.00
2017-08-23T23:21:07.507Z,4.63
2017-08-23T23:23:34.033Z,4.57
2017-08-23T23:26:00.596Z,4.70
2017-08-23T23:28:27.164Z,4.63
2017-08-23T23:30:53.682Z,4.33
2017-08-23T23:33:20.222Z,4.80
2017-08-23T23:35:46.907Z,4.20
2017-08-23T23:38:13.460Z,5.00
2017-08-23T23:40:39.965Z,4.23
2017-08-23T23:43:06.468Z,4.50
2017-08-23T23:45:32.990Z,4.23
2017-08-23T23:47:59.504Z,4.77
2017-08-23T23:50:26.121Z,5.40
2017-08-23T23:52:52.449Z,4.87
2017-08-23T23:55:18.766Z,4.27
2017-08-23T23:57:45.133Z,5.13
